Terminal Aerodrome Forecast
Issued by NWS

Home | Current Version | Previous Version | Text Only | Print | Product List | Glossary On
Versions: 1 2 3 4 5 6 7 8 9 10 11 12 13 14 15 16 17 18 19 20 21 22 23 24 25 26
998
FTUS43 KIND 241720
TAFLAF
TAF
KLAF 241720Z 2418/2518 20007KT 6SM -SHRA BR OVC045
     FM242200 14005KT 6SM -SHRA BR OVC025
     FM250400 04006KT P6SM VCSH OVC019
     FM251000 04010G18KT P6SM OVC011
     FM251500 05012G20KT P6SM SCT018=

USA.gov is the U.S. government's official web portal to all federal, state and local government web resources and services.